YBCG

Gold Coast Airport

Gold Coast, Australia
TAF YBCG 251721Z 2518/2618 VRB04KT 9999 MIFG FEW020 FM252100 21006KT 9999 FEW025 FM260000 18010KT 9999 SCT030 FM260400 18010KT 9999 -SHRA SCT025 SCT040
Issued Valid From Valid To
Apr-25 @ 17:21 UTC
(38 minutes ago)
Apr-25 @ 18:00 UTC
(in a minute)
Apr-26 @ 18:00 UTC
(in 24 hours)
Apr-25 @ 18:00 to Apr-25 @ 21:00
TAF YBCG 251721Z 2518/2618 VRB04KT 9999 MIFG FEW020
Wind Visibility Clouds Conditions
Variable at 4 knots 10,000+ meters
  • Few at 2,000' AGL
  • Shallow
  • Fog
From Apr-25 @ 21:00 to Apr-26 @ 00:00
FM252100 21006KT 9999 FEW025
Wind Visibility Clouds
210° at 6 knots 10,000+ meters
  • Few at 2,500' AGL
From Apr-26 @ 00:00 to Apr-26 @ 04:00
FM260000 18010KT 9999 SCT030
Wind Visibility Clouds
180° at 10 knots 10,000+ meters
  • Scattered at 3,000' AGL
From Apr-26 @ 04:00 to Apr-26 @ 18:00
FM260400 18010KT 9999 -SHRA SCT025 SCT040
Wind Visibility Clouds Conditions
180° at 10 knots 10,000+ meters
  • Scattered at 2,500' AGL
  • Scattered at 4,000' AGL
  • Light Rain
TAF YBCG 251721Z 2518/2618 VRB04KT 9999 MIFG FEW020 FM252100 21006KT 9999 FEW025 FM260000 18010KT 9999 SCT030 FM260400 18010KT 9999 -SHRA SCT025 SCT040
Issued Apr-25 @ 17:21 UTC
(38 minutes ago)
Valid From Apr-25 @ 18:00 UTC
(in a minute)
Valid To Apr-26 @ 18:00 UTC
(in 24 hours)
Apr-25 @ 18:00 - Apr-25 @ 21:00
Wind Visibility
Variable at 4 knots 10,000+ meters
Clouds
  • Few at 2,000' AGL
Conditions
  • Shallow
  • Fog
From Apr-25 @ 21:00 - Apr-26 @ 00:00
Wind Visibility
210° at 6 knots 10,000+ meters
Clouds
  • Few at 2,500' AGL
From Apr-26 @ 00:00 - Apr-26 @ 04:00
Wind Visibility
180° at 10 knots 10,000+ meters
Clouds
  • Scattered at 3,000' AGL
From Apr-26 @ 04:00 - Apr-26 @ 18:00
Wind Visibility
180° at 10 knots 10,000+ meters
Clouds
  • Scattered at 2,500' AGL
  • Scattered at 4,000' AGL
Conditions
  • Light Rain